createdAt,value
2022-08-20T00:01:42.840Z,19.79
2022-08-20T00:04:14.311Z,19.79
2022-08-20T00:06:46.082Z,19.73
2022-08-20T00:09:16.135Z,19.68
2022-08-20T00:11:45.368Z,19.66
2022-08-20T00:14:14.758Z,19.66
2022-08-20T00:16:46.569Z,19.67
2022-08-20T00:19:17.223Z,19.67
2022-08-20T00:21:47.280Z,19.64
2022-08-20T00:24:19.106Z,19.60
2022-08-20T00:26:52.495Z,19.60
2022-08-20T00:29:20.375Z,19.63
2022-08-20T00:31:50.702Z,19.66
2022-08-20T00:34:20.157Z,19.64
2022-08-20T00:36:49.848Z,19.63
2022-08-20T00:39:20.010Z,19.64
2022-08-20T00:41:51.676Z,19.66
2022-08-20T00:44:22.264Z,19.61
2022-08-20T00:46:52.141Z,19.54
2022-08-20T00:49:28.152Z,19.48
2022-08-20T00:52:12.411Z,19.42
2022-08-20T00:54:45.568Z,19.40
2022-08-20T00:57:59.003Z,19.42
2022-08-20T01:00:11.841Z,19.46
2022-08-20T01:02:42.359Z,19.49
2022-08-20T01:05:11.585Z,19.53
2022-08-20T01:07:42.028Z,19.52
2022-08-20T01:10:19.589Z,19.45
2022-08-20T01:12:49.251Z,19.41
2022-08-20T01:15:23.594Z,19.37
2022-08-20T01:17:58.480Z,19.32
2022-08-20T01:20:32.221Z,19.30
2022-08-20T01:23:32.516Z,19.30
2022-08-20T01:26:10.756Z,19.30
2022-08-20T01:28:59.692Z,19.30
2022-08-20T01:31:32.934Z,19.31
2022-08-20T01:34:04.019Z,19.29
2022-08-20T01:36:47.385Z,19.29
2022-08-20T01:39:21.542Z,19.27
2022-08-20T01:42:14.842Z,19.23
2022-08-20T01:44:45.072Z,19.22
2022-08-20T01:47:18.838Z,19.19
2022-08-20T01:49:52.858Z,19.18
2022-08-20T01:52:33.708Z,19.18
2022-08-20T01:55:03.597Z,19.17
2022-08-20T01:57:34.972Z,19.14
2022-08-20T02:00:19.601Z,19.17
2022-08-20T02:02:47.170Z,19.15
2022-08-20T02:05:16.888Z,19.11
2022-08-20T02:07:46.079Z,19.12
2022-08-20T02:10:17.061Z,19.13
2022-08-20T02:12:49.302Z,19.11
2022-08-20T02:15:18.864Z,19.12
2022-08-20T02:17:50.293Z,19.11
2022-08-20T02:20:23.218Z,19.09
2022-08-20T02:22:58.456Z,19.08
2022-08-20T02:25:31.411Z,19.05
2022-08-20T02:28:05.763Z,19.06
2022-08-20T02:30:39.367Z,19.04
2022-08-20T02:33:11.585Z,19.00
2022-08-20T02:35:42.456Z,18.99
2022-08-20T02:38:14.889Z,18.96
2022-08-20T02:40:45.230Z,18.97
2022-08-20T02:43:16.574Z,18.99
2022-08-20T02:45:46.240Z,19.02
2022-08-20T02:48:22.026Z,19.01
2022-08-20T02:50:56.358Z,19.05
2022-08-20T02:53:27.987Z,19.06
2022-08-20T02:55:56.985Z,19.08
2022-08-20T02:58:26.100Z,19.10
2022-08-20T03:00:56.721Z,19.15
2022-08-20T03:03:27.201Z,19.20
2022-08-20T03:05:58.382Z,19.23
2022-08-20T03:08:29.052Z,19.23
2022-08-20T03:10:59.103Z,19.23
2022-08-20T03:13:29.919Z,19.23
2022-08-20T03:16:00.972Z,19.25
2022-08-20T03:18:35.472Z,19.25
2022-08-20T03:21:06.339Z,19.23
2022-08-20T03:23:36.351Z,19.23
2022-08-20T03:26:09.149Z,19.21
2022-08-20T03:28:39.464Z,19.21
2022-08-20T03:31:10.106Z,19.20
2022-08-20T03:33:49.059Z,19.20
2022-08-20T03:36:13.567Z,19.19
2022-08-20T03:38:44.962Z,19.15
2022-08-20T03:41:16.089Z,19.14
2022-08-20T03:43:46.454Z,19.16
2022-08-20T03:46:23.103Z,19.16
2022-08-20T03:48:48.340Z,19.19
2022-08-20T03:51:19.542Z,19.18
2022-08-20T03:53:50.102Z,19.14
2022-08-20T03:56:19.175Z,19.14
2022-08-20T03:58:48.139Z,19.16
2022-08-20T04:01:44.844Z,19.20
2022-08-20T04:03:53.349Z,19.20
2022-08-20T04:06:20.771Z,19.20
2022-08-20T04:08:51.372Z,19.21
2022-08-20T04:11:21.393Z,19.21
2022-08-20T04:13:51.259Z,19.18
2022-08-20T04:16:22.158Z,19.14
2022-08-20T04:18:56.091Z,19.19
2022-08-20T04:21:24.655Z,19.24
2022-08-20T04:23:56.327Z,19.27
2022-08-20T04:26:25.564Z,19.27
2022-08-20T04:28:55.652Z,19.28
2022-08-20T04:31:27.387Z,19.27
2022-08-20T04:33:57.707Z,19.25
2022-08-20T04:36:28.171Z,19.26
2022-08-20T04:38:59.162Z,19.30
2022-08-20T04:41:28.676Z,19.37
2022-08-20T04:43:57.959Z,19.36
2022-08-20T04:46:27.576Z,19.37
2022-08-20T04:48:57.429Z,19.40
2022-08-20T04:51:27.564Z,19.44
2022-08-20T04:53:58.398Z,19.48
2022-08-20T04:56:35.594Z,19.53
2022-08-20T04:59:04.704Z,19.55
2022-08-20T05:01:34.476Z,19.53
2022-08-20T05:04:04.432Z,19.52
2022-08-20T05:06:35.070Z,19.54
2022-08-20T05:09:05.410Z,19.59
2022-08-20T05:11:36.925Z,19.66
2022-08-20T05:14:09.212Z,19.69
2022-08-20T05:16:40.719Z,19.73
2022-08-20T05:19:11.703Z,19.80
2022-08-20T05:21:41.285Z,19.87
2022-08-20T05:24:12.121Z,19.90
2022-08-20T05:26:42.483Z,19.98
2022-08-20T05:29:13.035Z,20.05
2022-08-20T05:31:43.385Z,20.09
2022-08-20T05:34:12.647Z,20.11
2022-08-20T05:36:45.395Z,20.14
2022-08-20T05:39:17.862Z,20.17
2022-08-20T05:41:49.445Z,20.20
2022-08-20T05:44:19.574Z,20.22
2022-08-20T05:46:49.857Z,20.29
2022-08-20T05:49:21.177Z,20.34
2022-08-20T05:51:51.396Z,20.36
2022-08-20T05:54:21.663Z,20.37
2022-08-20T05:56:52.155Z,20.36
2022-08-20T05:59:24.239Z,20.39
2022-08-20T06:01:53.799Z,20.42
2022-08-20T06:04:31.264Z,20.44
2022-08-20T06:07:06.645Z,20.48
2022-08-20T06:09:36.378Z,20.52
2022-08-20T06:12:08.372Z,20.57
2022-08-20T06:14:38.423Z,20.67
2022-08-20T06:17:15.283Z,20.73
2022-08-20T06:19:46.935Z,20.77
2022-08-20T06:22:18.343Z,20.83
2022-08-20T06:24:50.305Z,20.91
2022-08-20T06:27:22.142Z,20.96
2022-08-20T06:29:52.178Z,21.00
2022-08-20T06:32:31.965Z,21.04
2022-08-20T06:34:55.210Z,21.06
2022-08-20T06:37:30.963Z,21.07
2022-08-20T06:40:12.103Z,21.09
2022-08-20T06:42:48.224Z,21.15
2022-08-20T06:45:19.429Z,21.23
2022-08-20T06:47:49.955Z,21.32
2022-08-20T06:50:24.091Z,21.43
2022-08-20T06:52:54.390Z,21.48
2022-08-20T06:55:24.025Z,21.55
2022-08-20T06:58:02.309Z,21.58
2022-08-20T07:00:32.952Z,21.57
2022-08-20T07:03:02.140Z,21.62
2022-08-20T07:05:34.535Z,21.59
2022-08-20T07:08:04.997Z,21.57
2022-08-20T07:10:35.251Z,21.60
2022-08-20T07:13:06.370Z,21.62
2022-08-20T07:15:38.241Z,21.68
2022-08-20T07:18:07.845Z,21.72
2022-08-20T07:20:38.062Z,21.83
2022-08-20T07:23:08.043Z,21.94
2022-08-20T07:25:37.038Z,22.04
2022-08-20T07:28:13.713Z,22.16
2022-08-20T07:31:12.212Z,22.21
2022-08-20T07:33:34.067Z,22.17
2022-08-20T07:36:05.207Z,22.28
2022-08-20T07:38:35.500Z,22.39
2022-08-20T07:41:11.324Z,22.45
2022-08-20T07:43:42.084Z,22.48
2022-08-20T07:46:12.578Z,22.53
2022-08-20T07:48:44.965Z,22.58
2022-08-20T07:51:19.957Z,22.65
2022-08-20T07:53:55.009Z,22.67
2022-08-20T07:56:28.133Z,22.68
2022-08-20T07:59:02.083Z,22.70
2022-08-20T08:01:34.913Z,22.76
2022-08-20T08:04:04.794Z,22.78
2022-08-20T08:06:34.490Z,22.76
2022-08-20T08:09:10.567Z,22.79
2022-08-20T08:11:47.001Z,22.80
2022-08-20T08:14:15.664Z,22.85
2022-08-20T08:16:45.416Z,22.87
2022-08-20T08:19:14.833Z,22.88
2022-08-20T08:21:44.884Z,22.93
2022-08-20T08:24:20.290Z,22.96
2022-08-20T08:26:47.054Z,23.01
2022-08-20T08:29:16.107Z,23.03
2022-08-20T08:31:46.369Z,23.02
2022-08-20T08:34:16.613Z,23.08
2022-08-20T08:36:45.440Z,23.14
2022-08-20T08:39:14.518Z,23.24
2022-08-20T08:41:49.690Z,23.34
2022-08-20T08:44:28.169Z,23.46
2022-08-20T08:47:00.725Z,23.60
2022-08-20T08:49:37.289Z,23.72
2022-08-20T08:52:11.526Z,23.83
2022-08-20T08:54:45.344Z,23.86
2022-08-20T08:57:16.339Z,23.90
2022-08-20T09:00:03.460Z,23.90
2022-08-20T09:02:21.905Z,23.93
2022-08-20T09:04:51.849Z,23.99
2022-08-20T09:07:23.373Z,23.96
2022-08-20T09:09:53.086Z,23.95
2022-08-20T09:12:26.856Z,24.08
2022-08-20T09:14:55.757Z,24.20
2022-08-20T09:17:24.947Z,24.40
2022-08-20T09:19:53.963Z,24.60
2022-08-20T09:22:25.034Z,24.74
2022-08-20T09:24:55.969Z,24.79
2022-08-20T09:27:25.364Z,24.74
2022-08-20T09:29:55.605Z,24.68
2022-08-20T09:32:24.962Z,24.67
2022-08-20T09:34:56.482Z,24.63
2022-08-20T09:37:35.076Z,24.54
2022-08-20T09:40:00.646Z,24.48
2022-08-20T09:42:32.104Z,24.42
2022-08-20T09:45:02.189Z,24.35
2022-08-20T09:47:31.704Z,24.32
2022-08-20T09:50:01.115Z,24.31
2022-08-20T09:52:43.020Z,24.33
2022-08-20T09:55:35.184Z,24.32
2022-08-20T09:58:12.215Z,24.26
2022-08-20T10:00:41.295Z,24.29
2022-08-20T10:03:10.768Z,24.29
2022-08-20T10:05:40.438Z,24.30
2022-08-20T10:08:10.485Z,24.33
2022-08-20T10:10:39.638Z,24.34
2022-08-20T10:13:09.579Z,24.38
2022-08-20T10:15:41.851Z,24.38
2022-08-20T10:18:12.472Z,24.41
2022-08-20T10:20:41.650Z,24.43
2022-08-20T10:23:11.695Z,24.45
2022-08-20T10:25:41.790Z,24.49
2022-08-20T10:28:11.873Z,24.52
2022-08-20T10:30:42.022Z,24.55
2022-08-20T10:33:11.767Z,24.52
2022-08-20T10:35:41.594Z,24.51
2022-08-20T10:38:11.158Z,24.50
2022-08-20T10:40:41.246Z,24.49
2022-08-20T10:43:12.266Z,24.48
2022-08-20T10:45:41.805Z,24.45
2022-08-20T10:48:11.012Z,24.41
2022-08-20T10:50:40.293Z,24.30
2022-08-20T10:53:08.944Z,24.23
2022-08-20T10:55:38.728Z,24.18
2022-08-20T10:58:08.453Z,24.13
2022-08-20T11:00:40.370Z,24.10
2022-08-20T11:03:10.924Z,24.07
2022-08-20T11:05:43.020Z,24.03
2022-08-20T11:08:11.608Z,24.01
2022-08-20T11:10:41.857Z,23.99
2022-08-20T11:13:12.447Z,23.99
2022-08-20T11:15:45.246Z,24.02
2022-08-20T11:18:14.843Z,24.06
2022-08-20T11:20:44.497Z,24.04
2022-08-20T11:23:13.861Z,24.05
2022-08-20T11:25:42.821Z,24.11
2022-08-20T11:28:12.856Z,24.14
2022-08-20T11:30:41.883Z,24.21
2022-08-20T11:33:11.196Z,24.30
2022-08-20T11:35:48.101Z,24.36
2022-08-20T11:38:13.100Z,24.45
2022-08-20T11:40:42.455Z,24.50
2022-08-20T11:43:16.227Z,24.49
2022-08-20T11:45:45.467Z,24.50
2022-08-20T11:48:15.265Z,24.54
2022-08-20T11:50:45.235Z,24.60
2022-08-20T11:53:14.939Z,24.66
2022-08-20T11:55:45.331Z,24.73
2022-08-20T11:58:14.394Z,24.80
2022-08-20T12:00:43.574Z,24.86
2022-08-20T12:03:13.445Z,24.95
2022-08-20T12:05:45.007Z,25.03
2022-08-20T12:08:27.568Z,25.12
2022-08-20T12:10:45.351Z,25.15
2022-08-20T12:13:14.111Z,25.12
2022-08-20T12:15:44.308Z,25.06
2022-08-20T12:22:17.626Z,24.85
2022-08-20T12:24:42.965Z,24.70
2022-08-20T12:27:21.421Z,24.67
2022-08-20T12:29:52.890Z,24.63
2022-08-20T12:32:22.776Z,24.58
2022-08-20T12:34:52.161Z,24.53
2022-08-20T12:37:23.972Z,24.51
2022-08-20T12:39:56.225Z,24.52
2022-08-20T12:42:25.494Z,24.50
2022-08-20T12:45:02.213Z,24.48
2022-08-20T12:47:34.073Z,24.47
2022-08-20T12:50:13.456Z,24.45
2022-08-20T12:52:43.388Z,24.46
2022-08-20T12:55:14.214Z,24.47
2022-08-20T12:57:51.413Z,24.45
2022-08-20T13:00:28.499Z,24.42
2022-08-20T13:03:00.014Z,24.37
2022-08-20T13:05:29.988Z,24.37
2022-08-20T13:08:00.255Z,24.36
2022-08-20T13:10:31.556Z,24.36
2022-08-20T13:13:02.205Z,24.33
2022-08-20T13:15:32.250Z,24.32
2022-08-20T13:18:02.561Z,24.32
2022-08-20T13:20:34.616Z,24.31
2022-08-20T13:23:07.061Z,24.30
2022-08-20T13:25:35.795Z,24.29
2022-08-20T13:28:05.403Z,24.29
2022-08-20T13:30:38.084Z,24.30
2022-08-20T13:33:08.272Z,24.30
2022-08-20T13:35:37.020Z,24.30
2022-08-20T13:38:06.255Z,24.28
2022-08-20T13:40:35.795Z,24.26
2022-08-20T13:43:07.427Z,24.27
2022-08-20T13:45:37.170Z,24.26
2022-08-20T13:48:08.290Z,24.25
2022-08-20T13:50:38.247Z,24.23
2022-08-20T13:53:07.548Z,24.25
2022-08-20T13:55:38.564Z,24.26
2022-08-20T13:58:08.099Z,24.28
2022-08-20T14:00:37.880Z,24.28
2022-08-20T14:03:07.172Z,24.29
2022-08-20T14:05:37.336Z,24.34
2022-08-20T14:08:14.126Z,24.40
2022-08-20T14:10:44.451Z,24.38
2022-08-20T14:13:16.594Z,24.36
2022-08-20T14:15:46.215Z,24.33
2022-08-20T14:18:15.363Z,24.32
2022-08-20T14:20:45.650Z,24.33
2022-08-20T14:23:14.890Z,24.33
2022-08-20T14:25:46.468Z,24.33
2022-08-20T14:28:21.066Z,24.34
2022-08-20T14:30:52.906Z,24.34
2022-08-20T14:33:23.623Z,24.31
2022-08-20T14:35:54.328Z,24.28
2022-08-20T14:38:23.925Z,24.27
2022-08-20T14:40:53.825Z,24.26
2022-08-20T14:43:23.664Z,24.26
2022-08-20T14:45:52.802Z,24.27
2022-08-20T14:48:23.724Z,24.28
2022-08-20T14:50:55.139Z,24.30
2022-08-20T14:53:24.345Z,24.34
2022-08-20T14:55:53.349Z,24.34
2022-08-20T14:58:22.377Z,24.36
2022-08-20T15:00:52.856Z,24.34
2022-08-20T15:03:23.554Z,24.30
2022-08-20T15:05:53.497Z,24.27
2022-08-20T15:08:23.543Z,24.27
2022-08-20T15:10:54.437Z,24.25
2022-08-20T15:13:25.304Z,24.28
2022-08-20T15:16:16.492Z,24.29
2022-08-20T15:18:45.877Z,24.32
2022-08-20T15:21:21.427Z,24.30
2022-08-20T15:23:49.219Z,24.29
2022-08-20T15:26:18.551Z,24.29
2022-08-20T15:28:48.551Z,24.28
2022-08-20T15:31:18.678Z,24.24
2022-08-20T15:33:47.719Z,24.20
2022-08-20T15:36:16.584Z,24.19
2022-08-20T15:38:45.573Z,24.16
2022-08-20T15:41:16.575Z,24.14
2022-08-20T15:43:45.163Z,24.08
2022-08-20T15:46:15.578Z,24.04
2022-08-20T15:48:46.490Z,24.01
2022-08-20T15:51:35.960Z,23.97
2022-08-20T15:54:15.817Z,23.95
2022-08-20T15:56:59.446Z,23.89
2022-08-20T15:59:37.241Z,23.87
2022-08-20T16:02:27.038Z,23.85
2022-08-20T16:05:51.420Z,23.84
2022-08-20T16:09:05.686Z,23.80
2022-08-20T16:11:53.258Z,23.67
2022-08-20T16:14:26.622Z,23.58
2022-08-20T16:17:01.686Z,23.50
2022-08-20T16:19:56.827Z,23.42
2022-08-20T16:22:28.440Z,23.35
2022-08-20T16:24:58.116Z,23.29
2022-08-20T16:27:47.769Z,23.30
2022-08-20T16:30:27.179Z,23.31
2022-08-20T16:33:03.764Z,23.32
2022-08-20T16:35:40.963Z,23.32
2022-08-20T16:38:42.924Z,23.31
2022-08-20T16:41:18.477Z,23.28
2022-08-20T16:43:54.811Z,23.27
2022-08-20T16:46:31.673Z,23.25
2022-08-20T16:49:05.748Z,23.22
2022-08-20T16:51:43.101Z,23.18
2022-08-20T16:54:13.474Z,23.14
2022-08-20T16:56:48.037Z,23.09
2022-08-20T16:59:26.741Z,23.05
2022-08-20T17:01:54.650Z,23.02
2022-08-20T17:04:26.326Z,22.97
2022-08-20T17:06:55.650Z,22.94
2022-08-20T17:09:40.486Z,22.93
2022-08-20T17:12:27.972Z,22.95
2022-08-20T17:14:59.354Z,22.96
2022-08-20T17:17:36.657Z,22.95
2022-08-20T17:20:20.251Z,22.96
2022-08-20T17:22:53.426Z,22.96
2022-08-20T17:25:35.462Z,22.96
2022-08-20T17:28:15.907Z,22.95
2022-08-20T17:30:45.919Z,22.92
2022-08-20T17:33:32.333Z,22.88
2022-08-20T17:36:06.630Z,22.86
2022-08-20T17:38:50.524Z,22.83
2022-08-20T17:41:23.775Z,22.78
2022-08-20T17:44:08.534Z,22.75
2022-08-20T17:46:44.610Z,22.75
2022-08-20T17:49:19.079Z,22.77
2022-08-20T17:51:54.158Z,22.76
2022-08-20T17:54:27.029Z,22.74
2022-08-20T17:57:05.212Z,22.74
2022-08-20T18:00:00.081Z,22.76
2022-08-20T18:02:13.178Z,22.74
2022-08-20T18:04:42.406Z,22.76
2022-08-20T18:07:23.052Z,22.78
2022-08-20T18:10:16.211Z,22.77
2022-08-20T18:13:12.005Z,22.77
2022-08-20T18:15:46.757Z,22.74
2022-08-20T18:18:33.300Z,22.70
2022-08-20T18:21:49.499Z,22.67
2022-08-20T18:24:32.903Z,22.64
2022-08-20T18:27:03.388Z,22.63
2022-08-20T18:29:36.990Z,22.64
2022-08-20T18:32:10.259Z,22.62
2022-08-20T18:34:41.752Z,22.63
2022-08-20T18:37:19.730Z,22.61
2022-08-20T18:39:51.122Z,22.60
2022-08-20T18:42:36.336Z,22.60
2022-08-20T18:45:07.010Z,22.61
2022-08-20T18:47:42.240Z,22.60
2022-08-20T18:50:40.767Z,22.58
2022-08-20T18:53:24.313Z,22.56
2022-08-20T18:56:09.286Z,22.54
2022-08-20T18:59:01.549Z,22.52
2022-08-20T19:01:32.013Z,22.49
2022-08-20T19:04:03.069Z,22.50
2022-08-20T19:06:44.279Z,22.53
2022-08-20T19:10:12.940Z,22.55
2022-08-20T19:13:05.180Z,22.55
2022-08-20T19:15:40.272Z,22.55
2022-08-20T19:18:24.311Z,22.52
2022-08-20T19:21:01.516Z,22.51
2022-08-20T19:23:36.057Z,22.45
2022-08-20T19:26:25.158Z,22.43
2022-08-20T19:28:52.570Z,22.41
2022-08-20T19:31:29.781Z,22.38
2022-08-20T19:34:21.926Z,22.38
2022-08-20T19:36:46.430Z,22.36
2022-08-20T19:39:19.872Z,22.34
2022-08-20T19:42:07.102Z,22.27
2022-08-20T19:44:47.003Z,22.23
2022-08-20T19:47:43.864Z,22.20
2022-08-20T19:50:25.187Z,22.19
2022-08-20T19:53:03.145Z,22.17
2022-08-20T19:55:35.139Z,22.18
2022-08-20T19:58:25.890Z,22.19
2022-08-20T20:00:50.035Z,22.20
2022-08-20T20:03:24.160Z,22.19
2022-08-20T20:06:17.483Z,22.14
2022-08-20T20:09:03.862Z,22.09
2022-08-20T20:11:38.045Z,22.07
2022-08-20T20:14:11.288Z,22.05
2022-08-20T20:16:45.361Z,22.06
2022-08-20T20:19:26.262Z,22.05
2022-08-20T20:21:50.712Z,22.06
2022-08-20T20:24:32.612Z,22.07
2022-08-20T20:27:02.273Z,22.08
2022-08-20T20:29:36.289Z,22.08
2022-08-20T20:32:16.331Z,22.06
2022-08-20T20:34:55.706Z,22.05
2022-08-20T20:37:39.183Z,22.02
2022-08-20T20:40:19.018Z,21.99
2022-08-20T20:43:01.136Z,21.98
2022-08-20T20:45:44.135Z,21.94
2022-08-20T20:48:21.011Z,21.89
2022-08-20T20:50:51.320Z,21.82
2022-08-20T20:53:53.111Z,21.78
2022-08-20T20:56:07.450Z,21.79
2022-08-20T20:58:38.235Z,21.80
2022-08-20T21:01:07.457Z,21.82
2022-08-20T21:03:36.108Z,21.83
2022-08-20T21:06:05.290Z,21.80
2022-08-20T21:08:35.356Z,21.80
2022-08-20T21:11:05.409Z,21.81
2022-08-20T21:13:35.043Z,21.84
2022-08-20T21:16:07.058Z,21.84
2022-08-20T21:18:37.242Z,21.80
2022-08-20T21:21:08.142Z,21.77
2022-08-20T21:23:40.490Z,21.77
2022-08-20T21:26:10.105Z,21.77
2022-08-20T21:28:39.734Z,21.73
2022-08-20T21:31:09.083Z,21.69
2022-08-20T21:33:39.551Z,21.66
2022-08-20T21:36:09.169Z,21.64
2022-08-20T21:38:39.533Z,21.64
2022-08-20T21:41:09.472Z,21.59
2022-08-20T21:43:39.788Z,21.57
2022-08-20T21:46:12.725Z,21.58
2022-08-20T21:48:47.676Z,21.57
2022-08-20T21:51:15.318Z,21.52
2022-08-20T21:53:45.115Z,21.47
2022-08-20T21:56:14.422Z,21.41
2022-08-20T21:58:45.545Z,21.35
2022-08-20T22:01:15.230Z,21.26
2022-08-20T22:03:44.615Z,21.24
2022-08-20T22:06:15.391Z,21.25
2022-08-20T22:08:45.329Z,21.26
2022-08-20T22:11:15.385Z,21.28
2022-08-20T22:13:46.987Z,21.26
2022-08-20T22:16:18.180Z,21.23
2022-08-20T22:18:48.057Z,21.17
2022-08-20T22:21:25.370Z,21.15
2022-08-20T22:23:57.599Z,21.12
2022-08-20T22:26:27.234Z,21.11
2022-08-20T22:28:58.216Z,21.11
2022-08-20T22:31:30.595Z,21.13
2022-08-20T22:34:00.608Z,21.14
2022-08-20T22:36:31.753Z,21.14
2022-08-20T22:39:01.862Z,21.11
2022-08-20T22:41:31.062Z,21.10
2022-08-20T22:44:00.911Z,21.08
2022-08-20T22:46:37.494Z,21.08
2022-08-20T22:49:10.624Z,21.08
2022-08-20T22:51:41.336Z,21.07
2022-08-20T22:54:12.472Z,21.05
2022-08-20T22:56:42.083Z,21.06
2022-08-20T22:59:13.920Z,21.08
2022-08-20T23:01:45.754Z,21.08
2022-08-20T23:04:31.334Z,21.09
2022-08-20T23:07:01.931Z,21.08
2022-08-20T23:09:32.363Z,21.06
2022-08-20T23:12:01.430Z,20.99
2022-08-20T23:14:31.491Z,20.93
2022-08-20T23:17:08.083Z,20.92
2022-08-20T23:19:38.000Z,20.88
2022-08-20T23:22:07.998Z,20.83
2022-08-20T23:24:38.593Z,20.82
2022-08-20T23:27:08.611Z,20.83
2022-08-20T23:29:39.624Z,20.85
2022-08-20T23:32:11.686Z,20.85
2022-08-20T23:34:41.367Z,20.85
2022-08-20T23:37:11.023Z,20.85
2022-08-20T23:39:39.994Z,20.83
2022-08-20T23:42:10.902Z,20.83
2022-08-20T23:44:40.554Z,20.84
2022-08-20T23:47:10.787Z,20.85
2022-08-20T23:49:40.277Z,20.86
2022-08-20T23:52:10.136Z,20.83
2022-08-20T23:54:39.537Z,20.83
2022-08-20T23:57:09.852Z,20.85
2022-08-20T23:59:40.074Z,20.86
